Time;durP1;ratioP1;P1;durP2;ratioP2;P2;SDS_P1;SDS_P2;PMS_P1;PMS_P2;Temp;Humidity;BMP_temperature;BMP_pressure;BME280_temperature;BME280_humidity;BME280_pressure;Samples;Min_cycle;Max_cycle;Signal;HPM_P1;HPM_P2
2022/06/24 00:02:00;;;;;;;7.20;5.40;;;;;;;19.73;59.20;100672.16;5034598;28;20515;-66
2022/06/24 00:04:30;;;;;;;8.30;5.45;;;;;;;19.80;59.36;100675.34;5033600;28;20033;-66
2022/06/24 00:06:56;;;;;;;8.68;5.82;;;;;;;19.68;59.36;100677.75;5015612;28;20037;-66
2022/06/24 00:09:26;;;;;;;10.05;5.63;;;;;;;19.48;59.85;100679.75;4999631;28;20050;-66
2022/06/24 00:12:07;;;;;;;8.98;6.03;;;;;;;19.33;60.69;100676.09;4996301;28;20117;-66
2022/06/24 00:14:33;;;;;;;9.35;6.43;;;;;;;19.32;60.21;100671.72;5013474;28;20117;-67
2022/06/24 00:17:04;;;;;;;9.13;6.28;;;;;;;19.31;60.37;100667.28;5013055;28;20038;-67
2022/06/24 00:19:32;;;;;;;7.93;5.30;;;;;;;19.28;60.50;100665.69;5013577;28;20030;-65
2022/06/24 00:21:57;;;;;;;7.72;4.90;;;;;;;19.31;60.42;100670.84;5013644;28;20034;-65
2022/06/24 00:24:26;;;;;;;6.40;4.78;;;;;;;19.28;60.50;100668.34;5013343;28;20030;-66
2022/06/24 00:26:52;;;;;;;8.35;5.00;;;;;;;19.36;60.26;100668.78;5011825;28;20041;-66
2022/06/24 00:29:17;;;;;;;9.25;6.45;;;;;;;19.27;60.31;100682.59;5013991;28;20034;-66
2022/06/24 00:32:06;;;;;;;9.93;6.22;;;;;;;19.38;60.66;100674.88;5013128;28;20103;-66
2022/06/24 00:34:33;;;;;;;10.77;6.80;;;;;;;19.37;60.20;100672.31;4991133;28;20474;-66
2022/06/24 00:36:58;;;;;;;9.30;6.32;;;;;;;19.16;60.67;100677.84;5012668;28;20044;-67
2022/06/24 00:39:34;;;;;;;9.10;5.93;;;;;;;19.03;61.31;100675.88;4996169;28;20037;-66
2022/06/24 00:42:01;;;;;;;11.27;6.88;;;;;;;18.99;61.32;100672.53;5012730;28;20478;-67
2022/06/24 00:44:40;;;;;;;7.88;5.68;;;;;;;19.03;61.23;100678.53;5013646;28;20037;-66
2022/06/24 00:47:06;;;;;;;9.38;6.15;;;;;;;18.98;61.25;100672.59;5011604;28;20033;-66
2022/06/24 00:49:35;;;;;;;10.63;6.28;;;;;;;18.89;61.49;100663.28;5013812;28;20042;-66
2022/06/24 00:52:07;;;;;;;8.98;5.43;;;;;;;18.90;61.52;100668.53;5011748;28;20038;-67
2022/06/24 00:54:33;;;;;;;10.93;5.90;;;;;;;18.92;61.53;100671.13;5012897;28;20037;-67
2022/06/24 00:56:58;;;;;;;8.60;6.25;;;;;;;18.95;61.30;100676.31;4995554;28;20042;-67
2022/06/24 00:59:24;;;;;;;7.88;5.30;;;;;;;18.95;61.31;100661.19;5013508;28;20394;-66
2022/06/24 01:01:50;;;;;;;9.02;5.72;;;;;;;18.95;61.16;100660.34;5011367;28;20121;-66
2022/06/24 01:04:15;;;;;;;9.15;5.72;;;;;;;19.23;60.63;100667.72;5012564;28;20528;-66
2022/06/24 01:06:43;;;;;;;8.10;5.78;;;;;;;19.02;61.04;100666.19;5012652;28;20130;-67
2022/06/24 01:09:09;;;;;;;7.57;5.13;;;;;;;18.95;61.14;100661.19;5027053;28;20112;-66
2022/06/24 01:11:37;;;;;;;9.32;6.07;;;;;;;18.87;61.14;100668.72;5014660;28;20400;-67
2022/06/24 01:14:03;;;;;;;8.10;5.50;;;;;;;18.89;61.23;100661.50;5031702;28;20022;-66
2022/06/24 01:16:30;;;;;;;10.13;6.28;;;;;;;18.89;61.22;100663.28;5032693;28;20033;-66
2022/06/24 01:18:57;;;;;;;8.27;5.88;;;;;;;18.82;61.50;100654.75;5032425;28;20433;-66
2022/06/24 01:21:39;;;;;;;8.70;6.28;;;;;;;18.80;61.68;100654.00;5031139;28;20076;-67
2022/06/24 01:24:11;;;;;;;8.80;6.43;;;;;;;18.80;61.46;100653.13;5048097;28;20029;-67
2022/06/24 01:26:39;;;;;;;8.18;5.68;;;;;;;18.81;61.45;100657.50;5015278;28;20440;-66
2022/06/24 01:29:04;;;;;;;8.10;5.28;;;;;;;18.79;61.42;100648.72;5013849;28;20129;-67
2022/06/24 01:31:30;;;;;;;11.50;6.47;;;;;;;18.75;61.50;100653.38;5014873;28;20116;-67
2022/06/24 01:33:57;;;;;;;10.93;6.20;;;;;;;18.75;61.49;100658.69;5030756;28;20744;-67
2022/06/24 01:36:22;;;;;;;9.45;5.95;;;;;;;18.76;61.29;100656.88;5031296;28;20091;-67
2022/06/24 01:38:48;;;;;;;9.90;6.68;;;;;;;18.78;61.23;100653.19;5032318;28;20037;-67
2022/06/24 01:41:14;;;;;;;7.63;5.53;;;;;;;18.71;61.47;100657.09;5031323;28;20106;-67
2022/06/24 01:43:39;;;;;;;7.80;5.03;;;;;;;18.69;61.54;100662.47;5014478;28;20044;-66
2022/06/24 01:46:06;;;;;;;6.70;5.13;;;;;;;18.71;61.69;100657.09;5031777;28;20044;-66
2022/06/24 01:48:31;;;;;;;7.57;5.72;;;;;;;18.81;61.33;100657.50;5032076;28;20492;-67
2022/06/24 01:50:57;;;;;;;8.70;6.47;;;;;;;18.86;60.99;100651.00;5013641;28;20038;-67
2022/06/24 01:53:22;;;;;;;8.50;5.68;;;;;;;18.94;60.84;100658.59;5014878;28;20021;-67
2022/06/24 01:55:48;;;;;;;7.70;5.22;;;;;;;18.76;61.20;100660.41;5031633;28;20095;-67
2022/06/24 01:58:13;;;;;;;9.88;5.90;;;;;;;18.76;61.31;100655.09;5031779;28;20396;-67
2022/06/24 02:00:39;;;;;;;7.28;4.72;;;;;;;18.87;60.74;100663.38;5013980;28;20465;-66
2022/06/24 02:03:05;;;;;;;8.82;5.75;;;;;;;18.87;60.87;100663.38;5031960;28;20511;-67
2022/06/24 02:05:30;;;;;;;8.80;5.97;;;;;;;18.78;61.05;100661.19;5031367;28;20041;-66
2022/06/24 02:07:56;;;;;;;11.15;6.93;;;;;;;18.83;61.01;100664.50;5030391;28;20168;-66
2022/06/24 02:15:49;;;;;;;8.65;5.50;;;;;;;18.76;61.20;100665.72;5030578;28;20092;-66
2022/06/24 02:18:15;;;;;;;8.40;5.35;;;;;;;18.77;61.16;100662.13;5014416;28;20393;-67
2022/06/24 02:20:40;;;;;;;6.72;5.20;;;;;;;18.81;60.86;100658.38;5031405;28;20048;-66
2022/06/24 02:23:06;;;;;;;7.38;4.97;;;;;;;18.84;60.77;100660.88;5035948;28;20037;-66
2022/06/24 02:25:31;;;;;;;8.60;5.35;;;;;;;18.87;60.54;100660.72;5035940;28;20465;-67
2022/06/24 02:27:57;;;;;;;8.10;5.40;;;;;;;18.89;60.57;100650.84;5035049;28;20123;-67
2022/06/24 02:30:22;;;;;;;7.65;5.50;;;;;;;18.96;60.41;100664.72;5035857;28;20473;-67
2022/06/24 02:32:48;;;;;;;7.78;4.70;;;;;;;18.87;60.63;100663.38;5034716;28;20084;-66
2022/06/24 02:35:13;;;;;;;7.47;4.60;;;;;;;18.81;60.94;100665.50;5018069;28;20555;-67
2022/06/24 02:37:38;;;;;;;9.93;6.10;;;;;;;19.01;60.40;100665.31;5035549;28;20037;-66
2022/06/24 02:42:56;;;;;;;7.60;5.03;;;;;;;18.81;61.13;100658.38;5020755;28;20052;-66
2022/06/24 02:45:22;;;;;;;7.55;5.05;;;;;;;18.94;60.58;100670.09;5028866;28;20040;-66
2022/06/24 02:47:48;;;;;;;8.32;5.45;;;;;;;18.99;60.36;100661.91;5014156;28;20037;-67
2022/06/24 02:50:13;;;;;;;9.80;5.30;;;;;;;18.89;60.79;100666.81;5035143;28;20367;-67
2022/06/24 02:52:39;;;;;;;8.20;5.40;;;;;;;19.06;60.53;100668.59;5032615;28;20045;-66
2022/06/24 02:55:05;;;;;;;6.30;4.60;;;;;;;19.07;60.05;100667.69;5013675;28;20114;-67
2022/06/24 02:57:30;;;;;;;10.75;5.50;;;;;;;19.08;60.36;100663.22;5035229;28;20039;-67
2022/06/24 02:59:57;;;;;;;7.95;4.95;;;;;;;19.09;60.25;100667.59;5034337;28;20441;-67
2022/06/24 03:02:22;;;;;;;9.38;4.97;;;;;;;19.13;60.17;100670.00;5001151;28;20076;-67
2022/06/24 03:04:48;;;;;;;8.10;5.30;;;;;;;19.17;60.10;100660.91;5034602;28;20033;-66
2022/06/24 03:07:13;;;;;;;8.05;5.13;;;;;;;19.31;59.76;100662.84;5034387;28;20032;-67
2022/06/24 03:09:38;;;;;;;9.38;5.15;;;;;;;19.36;59.55;100668.78;4997999;28;20096;-67
2022/06/24 03:12:04;;;;;;;10.43;5.70;;;;;;;19.35;59.63;100667.06;5014506;28;20097;-67
2022/06/24 03:14:30;;;;;;;10.57;5.85;;;;;;;19.35;59.62;100672.41;5012014;28;20037;-67
2022/06/24 03:16:57;;;;;;;9.60;5.82;;;;;;;19.38;59.67;100669.56;5014261;28;20394;-67
2022/06/24 03:19:23;;;;;;;9.93;5.45;;;;;;;19.32;59.89;100669.91;5014793;28;20444;-67
2022/06/24 03:21:48;;;;;;;7.40;4.63;;;;;;;19.39;59.90;100665.97;5015860;28;20071;-67
2022/06/24 03:24:15;;;;;;;8.05;5.00;;;;;;;19.47;59.72;100662.00;5015096;28;20030;-67
2022/06/24 03:26:40;;;;;;;9.60;4.90;;;;;;;19.53;59.37;100669.69;5016002;28;20124;-67
2022/06/24 03:29:06;;;;;;;9.23;5.40;;;;;;;19.52;59.51;100666.16;4997709;28;20450;-67
2022/06/24 03:31:31;;;;;;;7.40;5.65;;;;;;;19.59;59.40;100664.00;5014890;28;20141;-67
2022/06/24 03:33:58;;;;;;;11.02;5.85;;;;;;;19.62;59.34;100670.06;5015585;28;20030;-67
2022/06/24 03:36:27;;;;;;;7.88;5.18;;;;;;;19.73;59.04;100674.81;5028115;28;20042;-68
2022/06/24 03:38:52;;;;;;;8.40;5.40;;;;;;;19.82;59.02;100673.44;5015085;28;20113;-67
2022/06/24 03:41:18;;;;;;;8.63;5.30;;;;;;;19.88;58.90;100671.31;5014275;28;20040;-67
2022/06/24 03:43:43;;;;;;;7.95;6.20;;;;;;;19.91;58.78;100673.81;5015448;28;20109;-67
2022/06/24 03:46:08;;;;;;;6.30;4.85;;;;;;;20.00;58.84;100679.56;5014471;28;20061;-67
2022/06/24 03:48:34;;;;;;;6.95;5.35;;;;;;;20.05;58.61;100672.16;5014146;28;20100;-67
2022/06/24 03:50:59;;;;;;;9.88;5.32;;;;;;;20.18;58.39;100671.38;5013694;28;20456;-68
2022/06/24 03:53:25;;;;;;;9.27;4.97;;;;;;;20.27;58.01;100675.34;5014061;28;20037;-68
2022/06/24 03:55:51;;;;;;;8.18;5.15;;;;;;;20.58;57.76;100682.44;5012798;28;20030;-68
2022/06/24 03:58:18;;;;;;;6.38;5.30;;;;;;;20.77;57.40;100679.56;5011657;28;20080;-68
2022/06/24 04:00:43;;;;;;;8.30;5.65;;;;;;;20.82;56.92;100672.13;4995225;28;20030;-68
2022/06/24 04:03:09;;;;;;;6.75;4.93;;;;;;;21.04;56.97;100681.53;5013585;28;20103;-68
2022/06/24 04:05:34;;;;;;;8.32;5.95;;;;;;;21.02;56.95;100683.44;5013500;28;20045;-68
2022/06/24 04:08:00;;;;;;;7.30;5.35;;;;;;;21.06;57.03;100680.47;5017252;28;20057;-68
2022/06/24 04:10:25;;;;;;;7.20;5.50;;;;;;;21.19;57.05;100677.94;5034038;28;20437;-69
2022/06/24 04:12:51;;;;;;;6.82;5.30;;;;;;;21.26;57.25;100671.25;5048164;28;20037;-68
2022/06/24 04:15:17;;;;;;;10.18;6.53;;;;;;;21.37;57.26;100674.16;5034094;28;20543;-68
2022/06/24 04:17:44;;;;;;;7.63;5.85;;;;;;;21.52;56.80;100676.84;5014868;28;20047;-67
2022/06/24 04:20:11;;;;;;;7.78;5.18;;;;;;;21.61;56.57;100674.44;5034064;28;20061;-68
2022/06/24 04:22:36;;;;;;;6.40;5.07;;;;;;;21.74;56.22;100679.84;5033856;28;20441;-69
2022/06/24 04:25:03;;;;;;;7.47;5.20;;;;;;;21.87;56.30;100675.47;5001888;28;20068;-69
2022/06/24 04:27:28;;;;;;;8.73;5.50;;;;;;;22.06;55.78;100687.63;5001558;28;20060;-69
2022/06/24 04:30:02;;;;;;;7.50;4.68;;;;;;;22.18;55.29;100681.53;5009623;28;20057;-69
2022/06/24 04:32:27;;;;;;;5.45;3.47;;;;;;;22.28;55.10;100682.66;5021204;28;20109;-69
2022/06/24 04:34:53;;;;;;;5.15;3.75;;;;;;;22.45;54.63;100683.34;4996179;28;20144;-67
2022/06/24 04:37:18;;;;;;;7.80;4.50;;;;;;;22.60;54.31;100687.69;4994871;28;20180;-69
2022/06/24 04:39:44;;;;;;;6.07;5.05;;;;;;;22.71;54.38;100684.31;5034490;28;20033;-68
2022/06/24 04:42:10;;;;;;;5.45;4.60;;;;;;;22.82;53.92;100687.09;5034139;28;20049;-69
2022/06/24 04:44:36;;;;;;;7.65;5.10;;;;;;;22.93;53.84;100683.72;5032936;28;20026;-69
2022/06/24 04:47:01;;;;;;;5.85;3.97;;;;;;;23.08;53.23;100686.19;5032454;28;20423;-67
2022/06/24 04:49:27;;;;;;;6.13;3.53;;;;;;;23.20;52.72;100686.31;5033465;28;20124;-70
2022/06/24 04:51:52;;;;;;;5.88;4.03;;;;;;;23.31;52.42;100692.66;5049398;28;20041;-71
2022/06/24 04:54:18;;;;;;;4.50;3.60;;;;;;;23.46;52.02;100689.84;5016199;28;20028;-69
2022/06/24 04:56:43;;;;;;;8.10;5.35;;;;;;;23.56;51.91;100682.88;5033968;28;20037;-69
2022/06/24 04:59:08;;;;;;;4.68;4.18;;;;;;;23.63;51.79;100686.84;5032635;28;20152;-69
2022/06/24 05:01:34;;;;;;;5.90;4.43;;;;;;;23.69;51.53;100689.09;5032313;28;20038;-67
2022/06/24 05:04:00;;;;;;;5.88;4.80;;;;;;;23.77;51.56;100680.50;5015253;28;20045;-67
2022/06/24 05:06:26;;;;;;;4.47;3.88;;;;;;;23.86;51.16;100674.50;5031667;28;20417;-68
2022/06/24 05:08:51;;;;;;;4.40;3.90;;;;;;;23.97;50.61;100681.75;5013227;28;20065;-67
2022/06/24 05:11:16;;;;;;;8.80;4.95;;;;;;;24.03;50.28;100681.31;5031985;28;20026;-68
2022/06/24 05:13:42;;;;;;;6.28;3.90;;;;;;;24.18;50.16;100674.81;5032348;28;20080;-68
2022/06/24 05:16:07;;;;;;;6.68;5.35;;;;;;;24.26;50.17;100683.16;5048555;28;20037;-68
2022/06/24 05:18:33;;;;;;;6.35;4.80;;;;;;;24.30;50.00;100679.28;5044759;28;20076;-68
2022/06/24 05:20:58;;;;;;;8.63;5.15;;;;;;;24.44;49.86;100680.09;5020576;28;20477;-68
2022/06/24 05:23:24;;;;;;;5.57;4.78;;;;;;;24.52;49.77;100675.00;5014336;28;20037;-69
2022/06/24 05:25:49;;;;;;;8.40;4.60;;;;;;;24.59;49.70;100678.94;5026232;28;20038;-68
2022/06/24 05:28:14;;;;;;;5.53;4.00;;;;;;;24.64;49.67;100683.97;5032518;28;20087;-68
2022/06/24 05:30:40;;;;;;;8.95;5.10;;;;;;;24.72;49.54;100690.47;5032346;28;20040;-69
2022/06/24 05:33:05;;;;;;;4.38;3.80;;;;;;;24.79;49.34;100685.50;5031211;28;20049;-68
2022/06/24 05:35:31;;;;;;;6.10;4.30;;;;;;;24.82;49.31;100690.66;5015086;28;20045;-68
2022/06/24 05:37:56;;;;;;;5.18;3.90;;;;;;;24.86;49.15;100692.13;5012142;28;20046;-67
2022/06/24 05:40:22;;;;;;;9.50;4.07;;;;;;;25.00;48.85;100688.34;5030283;28;20069;-67
2022/06/24 05:42:47;;;;;;;6.43;4.10;;;;;;;25.06;48.86;100678.00;5031136;28;20036;-69
2022/06/24 05:45:12;;;;;;;6.85;4.43;;;;;;;25.15;48.50;100681.84;5030066;28;20044;-68
2022/06/24 05:47:38;;;;;;;5.70;4.10;;;;;;;25.25;48.33;100674.75;5014782;28;20033;-68
2022/06/24 05:50:04;;;;;;;5.32;4.38;;;;;;;25.30;48.02;100677.94;5031528;28;20044;-68
2022/06/24 05:55:13;;;;;;;7.15;4.10;;;;;;;25.52;47.81;100679.78;5018997;28;20172;-68
2022/06/24 05:57:39;;;;;;;8.45;4.38;;;;;;;25.56;47.84;100678.56;5019556;28;20120;-69
2022/06/24 06:00:06;;;;;;;6.63;4.13;;;;;;;25.64;47.51;100679.78;5002081;28;20403;-69
2022/06/24 06:02:31;;;;;;;6.18;3.58;;;;;;;25.67;47.59;100679.53;5035917;28;20446;-68
2022/06/24 06:04:57;;;;;;;5.88;4.13;;;;;;;25.76;47.30;100668.03;5035817;28;20469;-67
2022/06/24 06:07:23;;;;;;;4.65;3.65;;;;;;;25.78;47.35;100672.34;5012819;28;20116;-69
2022/06/24 06:09:48;;;;;;;4.18;3.22;;;;;;;25.92;46.99;100679.28;5025895;28;20036;-68
2022/06/24 06:12:14;;;;;;;5.95;3.67;;;;;;;25.97;47.04;100673.53;5031146;28;20034;-69
2022/06/24 06:14:40;;;;;;;5.38;4.20;;;;;;;26.04;46.95;100677.44;5017332;28;20069;-68
2022/06/24 06:17:07;;;;;;;4.30;3.17;;;;;;;26.11;46.72;100681.34;5030043;28;20045;-69
2022/06/24 06:19:34;;;;;;;5.95;3.63;;;;;;;26.22;46.66;100684.03;5019516;28;20076;-70
2022/06/24 06:22:03;;;;;;;5.38;2.80;;;;;;;26.29;46.35;100685.22;5035696;28;20069;-68
2022/06/24 06:24:30;;;;;;;3.55;2.60;;;;;;;26.37;46.11;100684.59;5034366;28;20447;-69
2022/06/24 06:26:59;;;;;;;5.85;3.13;;;;;;;26.43;45.91;100677.84;5035650;28;20033;-69
2022/06/24 06:29:25;;;;;;;3.88;2.92;;;;;;;26.53;45.64;100684.19;5028674;28;20105;-69
2022/06/24 06:31:55;;;;;;;3.50;2.70;;;;;;;26.57;45.56;100680.28;5031145;28;20057;-69
2022/06/24 06:34:20;;;;;;;6.78;3.30;;;;;;;26.65;45.52;100683.19;5050401;28;20108;-69
2022/06/24 06:36:46;;;;;;;5.97;3.15;;;;;;;26.67;45.28;100691.97;5030172;28;20037;-69
2022/06/24 06:39:11;;;;;;;5.38;3.20;;;;;;;26.74;45.11;100686.94;5034685;28;20120;-69
2022/06/24 06:41:37;;;;;;;3.03;2.58;;;;;;;26.79;44.78;100679.28;5035874;28;20034;-70
2022/06/24 06:44:02;;;;;;;4.72;2.80;;;;;;;26.84;44.77;100678.91;5034945;28;20759;-70
2022/06/24 06:46:28;;;;;;;5.30;3.70;;;;;;;26.88;44.84;100685.75;5035499;28;20068;-69
2022/06/24 06:48:53;;;;;;;3.53;3.22;;;;;;;26.92;44.56;100677.25;5017709;28;20455;-70
2022/06/24 06:51:19;;;;;;;3.40;2.80;;;;;;;27.01;44.42;100670.25;5035230;28;20389;-69
2022/06/24 06:53:44;;;;;;;3.00;2.58;;;;;;;27.08;44.10;100668.69;5034777;28;20049;-69
2022/06/24 06:56:09;;;;;;;4.47;2.75;;;;;;;27.19;44.08;100674.06;5034845;28;20045;-69
2022/06/24 06:58:35;;;;;;;6.85;3.28;;;;;;;27.24;43.85;100671.81;5017449;28;20034;-70
2022/06/24 07:01:00;;;;;;;4.05;3.00;;;;;;;27.36;43.54;100677.13;5045511;28;20037;-68
2022/06/24 07:03:26;;;;;;;3.47;2.50;;;;;;;27.34;43.45;100671.88;5034334;28;20172;-70
2022/06/24 07:05:51;;;;;;;4.25;3.25;;;;;;;27.38;43.49;100667.06;5003150;28;20038;-70
2022/06/24 07:08:17;;;;;;;6.20;2.95;;;;;;;27.47;43.32;100672.50;5033608;28;20056;-70
2022/06/24 07:10:44;;;;;;;4.65;2.65;;;;;;;27.55;42.94;100674.53;5033541;28;20100;-70
2022/06/24 07:13:10;;;;;;;3.70;2.72;;;;;;;27.57;42.92;100677.97;5016569;28;20078;-71
2022/06/24 07:15:36;;;;;;;4.68;2.55;;;;;;;27.59;42.65;100670.56;5034859;28;20025;-69
2022/06/24 07:18:01;;;;;;;3.35;2.53;;;;;;;27.82;42.22;100665.84;5050068;28;20608;-67
2022/06/24 07:20:27;;;;;;;3.42;2.35;;;;;;;27.90;41.84;100666.03;5033635;28;20029;-69
2022/06/24 07:22:53;;;;;;;3.75;2.25;;;;;;;27.96;41.61;100662.75;5016490;28;20026;-69
2022/06/24 07:25:18;;;;;;;2.63;2.10;;;;;;;28.02;41.39;100666.75;5034533;28;20035;-69
2022/06/24 07:27:44;;;;;;;2.80;2.38;;;;;;;28.08;41.27;100668.88;5034853;28;20037;-70
2022/06/24 07:30:10;;;;;;;3.15;2.67;;;;;;;28.12;41.20;100667.63;5049904;28;20138;-69
2022/06/24 07:32:35;;;;;;;3.53;2.30;;;;;;;28.19;40.91;100668.78;5043129;28;20040;-69
2022/06/24 07:35:04;;;;;;;3.20;2.08;;;;;;;28.27;40.46;100667.22;5034328;28;20111;-65
2022/06/24 07:37:29;;;;;;;3.22;2.50;;;;;;;28.23;40.51;100675.59;5033642;28;20037;-69
2022/06/24 07:39:58;;;;;;;3.25;2.30;;;;;;;28.27;40.13;100670.78;5016763;28;20041;-70
2022/06/24 07:42:23;;;;;;;4.28;2.45;;;;;;;28.32;39.98;100673.91;5034294;28;20037;-69
2022/06/24 07:44:49;;;;;;;2.70;1.95;;;;;;;28.23;40.19;100669.34;5033845;28;20034;-70
2022/06/24 07:47:14;;;;;;;3.90;2.25;;;;;;;28.16;40.26;100668.19;5034467;28;20111;-69
2022/06/24 07:49:40;;;;;;;3.15;2.10;;;;;;;28.19;40.15;100663.38;5016376;28;20037;-69
2022/06/24 07:52:08;;;;;;;3.60;2.33;;;;;;;28.17;39.52;100667.22;5034332;28;20083;-69
2022/06/24 07:54:34;;;;;;;2.60;1.90;;;;;;;28.33;39.45;100662.13;5034112;28;20065;-68
2022/06/24 07:57:02;;;;;;;3.92;2.17;;;;;;;28.08;39.80;100658.09;5016374;28;20076;-69
2022/06/24 07:59:29;;;;;;;4.07;2.53;;;;;;;28.03;39.86;100660.34;5015625;28;20538;-71
2022/06/24 08:01:59;;;;;;;3.67;2.55;;;;;;;28.06;39.88;100654.69;5014140;28;20033;-70
2022/06/24 08:04:27;;;;;;;4.50;2.70;;;;;;;28.10;39.41;100656.13;5027534;28;20840;-71
2022/06/24 08:06:53;;;;;;;3.63;2.38;;;;;;;28.11;39.53;100655.09;5033621;28;20037;-69
2022/06/24 08:09:20;;;;;;;2.38;2.03;;;;;;;28.18;39.18;100653.56;5032064;28;20366;-70
2022/06/24 08:11:46;;;;;;;3.35;2.35;;;;;;;28.10;39.42;100658.81;5042616;28;20087;-70
2022/06/24 08:14:13;;;;;;;2.92;2.30;;;;;;;28.08;38.69;100655.38;5030076;28;20026;-72
2022/06/24 08:16:39;;;;;;;3.75;2.65;;;;;;;28.11;38.94;100644.31;5033067;28;20120;-71
2022/06/24 08:19:05;;;;;;;4.25;2.40;;;;;;;28.16;38.88;100642.03;5014085;28;20428;-68
2022/06/24 08:21:30;;;;;;;2.80;2.20;;;;;;;28.21;38.57;100641.63;5033760;28;20456;-70
2022/06/24 08:23:56;;;;;;;2.50;2.13;;;;;;;28.31;38.43;100641.63;5032079;28;20037;-70
2022/06/24 08:26:21;;;;;;;2.40;1.92;;;;;;;28.41;38.52;100629.03;5033524;28;20069;-69
2022/06/24 08:28:47;;;;;;;4.43;2.28;;;;;;;28.37;38.31;100638.41;5033439;28;20068;-67
2022/06/24 08:31:13;;;;;;;4.60;2.58;;;;;;;28.41;38.29;100627.16;5015734;28;20030;-70
2022/06/24 08:33:38;;;;;;;3.50;2.30;;;;;;;28.60;38.12;100630.84;4996004;28;20409;-70
2022/06/24 08:36:04;;;;;;;5.88;2.58;;;;;;;28.61;38.09;100628.00;5030306;28;20037;-67
2022/06/24 08:38:30;;;;;;;5.40;2.80;;;;;;;28.56;38.37;100626.72;5032473;28;20041;-73
2022/06/24 08:40:58;;;;;;;4.68;2.50;;;;;;;28.76;38.20;100623.00;5032775;28;20044;-69
2022/06/24 08:43:24;;;;;;;3.50;2.00;;;;;;;28.66;38.58;100628.44;5014318;28;20124;-70
2022/06/24 08:45:50;;;;;;;5.32;2.40;;;;;;;28.59;37.96;100624.59;5033751;28;20112;-71
2022/06/24 08:48:16;;;;;;;2.50;2.03;;;;;;;28.77;37.89;100610.34;5034033;28;20603;-70
2022/06/24 08:50:42;;;;;;;3.10;2.28;;;;;;;28.72;38.15;100611.63;5016003;28;20037;-72
2022/06/24 08:53:10;;;;;;;3.45;2.40;;;;;;;28.76;37.97;100606.78;5014918;28;20484;-69
2022/06/24 08:55:37;;;;;;;3.63;2.20;;;;;;;28.63;37.81;100617.03;5033661;28;20029;-70
2022/06/24 08:58:11;;;;;;;4.68;2.20;;;;;;;28.67;37.58;100613.06;5033593;28;20035;-71
2022/06/24 09:00:38;;;;;;;2.42;2.00;;;;;;;28.72;37.93;100605.34;5016267;28;20499;-70
2022/06/24 09:03:05;;;;;;;2.22;1.95;;;;;;;28.82;37.83;100602.66;5016026;28;20087;-71
2022/06/24 09:05:31;;;;;;;3.10;1.90;;;;;;;28.95;37.50;100605.88;5033193;28;20477;-70
2022/06/24 09:08:07;;;;;;;2.95;1.98;;;;;;;29.07;37.56;100604.75;5033324;28;20049;-72
2022/06/24 09:10:34;;;;;;;2.47;2.08;;;;;;;29.08;37.63;100598.31;5033509;28;20032;-71
2022/06/24 09:12:59;;;;;;;4.45;2.17;;;;;;;29.11;37.54;100599.88;5033595;28;20040;-71
2022/06/24 09:15:25;;;;;;;2.90;2.03;;;;;;;29.05;37.76;100604.06;5033095;28;20120;-69
2022/06/24 09:17:51;;;;;;;4.38;2.15;;;;;;;29.16;37.47;100598.44;5031794;28;20036;-72
2022/06/24 09:20:23;;;;;;;3.42;2.25;;;;;;;29.03;37.47;100603.31;5033375;28;20456;-72
2022/06/24 09:22:50;;;;;;;2.60;1.90;;;;;;;29.12;37.58;100607.84;5033556;28;20029;-72
2022/06/24 09:25:16;;;;;;;3.35;2.20;;;;;;;28.99;37.44;100607.31;5033280;28;20038;-74
2022/06/24 09:27:46;;;;;;;3.13;2.20;;;;;;;29.01;37.45;100604.50;5033422;28;20029;-72
2022/06/24 09:30:15;;;;;;;4.22;2.33;;;;;;;28.96;37.00;100599.47;5016232;28;20069;-73
2022/06/24 09:32:54;;;;;;;2.72;1.98;;;;;;;29.15;36.71;100598.59;5033037;28;20033;-72
2022/06/24 09:35:22;;;;;;;4.30;2.00;;;;;;;29.25;36.76;100601.28;5033056;28;20030;-73
2022/06/24 09:37:50;;;;;;;4.85;2.25;;;;;;;29.27;36.74;100586.59;5033179;28;20030;-74
2022/06/24 09:40:27;;;;;;;3.03;2.10;;;;;;;29.37;36.53;100583.84;5033375;28;20033;-71
2022/06/24 09:42:59;;;;;;;2.25;1.80;;;;;;;29.42;36.65;100586.94;5033079;28;20465;-72
2022/06/24 09:45:26;;;;;;;2.70;2.15;;;;;;;29.29;37.10;100583.75;5032753;28;20061;-72
2022/06/24 09:47:57;;;;;;;3.97;2.00;;;;;;;29.39;36.42;100574.56;5033012;28;20441;-72
2022/06/24 09:50:22;;;;;;;4.38;2.50;;;;;;;29.56;36.59;100570.19;5032720;28;20107;-73
2022/06/24 09:52:49;;;;;;;2.08;1.80;;;;;;;29.60;36.58;100573.47;5032915;28;20424;-72
2022/06/24 09:55:16;;;;;;;2.42;2.17;;;;;;;29.65;36.22;100566.63;5033229;28;20095;-70
2022/06/24 09:57:41;;;;;;;2.42;1.63;;;;;;;29.72;36.21;100564.13;5033012;28;20040;-71
2022/06/24 10:02:53;;;;;;;3.45;2.20;;;;;;;29.67;36.70;100558.34;5031399;28;20405;-71
2022/06/24 10:05:20;;;;;;;4.20;1.70;;;;;;;29.70;36.66;100563.47;5015046;28;20545;-71
2022/06/24 10:07:46;;;;;;;6.78;2.25;;;;;;;29.74;36.69;100567.56;5032756;28;20052;-71
2022/06/24 10:10:14;;;;;;;2.85;2.00;;;;;;;29.67;36.41;100570.00;5032942;28;20032;-70
2022/06/24 10:12:46;;;;;;;2.47;1.67;;;;;;;29.79;35.77;100550.84;5025274;28;20458;-71
2022/06/24 10:15:14;;;;;;;2.00;1.80;;;;;;;29.87;35.82;100564.47;5012908;28;20030;-69
2022/06/24 10:17:43;;;;;;;3.33;1.80;;;;;;;29.90;36.35;100554.19;5026591;28;20108;-71
2022/06/24 10:20:12;;;;;;;3.53;2.03;;;;;;;29.95;36.81;100549.16;5038321;28;20536;-73
2022/06/24 10:22:46;;;;;;;3.03;1.85;;;;;;;29.97;37.11;100559.84;5032494;28;20025;-73
2022/06/24 10:25:42;;;;;;;4.28;1.77;;;;;;;29.95;37.01;100562.69;5032846;28;20404;-72
2022/06/24 10:28:08;;;;;;;2.85;1.50;;;;;;;29.95;36.61;100554.56;5032449;28;20033;-72
2022/06/24 10:30:39;;;;;;;2.50;1.75;;;;;;;29.84;36.55;100548.53;5011860;28;20060;-72
2022/06/24 10:33:21;;;;;;;2.00;1.50;;;;;;;29.91;37.85;100557.75;5036421;28;20047;-71
2022/06/24 10:35:58;;;;;;;1.95;1.33;;;;;;;30.12;36.67;100546.59;5030954;28;20274;-72
2022/06/24 10:38:24;;;;;;;2.80;1.50;;;;;;;30.27;36.23;100544.22;5008156;28;20033;-71
2022/06/24 10:40:51;;;;;;;2.05;1.70;;;;;;;30.35;36.25;100552.41;5031682;28;20033;-72
2022/06/24 10:43:36;;;;;;;3.05;1.58;;;;;;;30.24;34.61;100544.53;5034924;28;20048;-72
2022/06/24 10:46:13;;;;;;;3.08;1.92;;;;;;;30.09;34.71;100538.81;5036577;28;20489;-71
2022/06/24 10:48:51;;;;;;;2.40;1.70;;;;;;;30.11;36.05;100537.63;5036491;28;20104;-72
2022/06/24 10:51:19;;;;;;;1.95;1.70;;;;;;;30.15;37.00;100541.75;5035791;28;20061;-71
2022/06/24 10:54:03;;;;;;;3.70;1.60;;;;;;;30.21;37.04;100534.88;5036135;28;20041;-70
2022/06/24 10:56:34;;;;;;;1.95;1.42;;;;;;;30.24;37.35;100533.69;5018670;28;20447;-72
2022/06/24 10:58:59;;;;;;;2.00;1.58;;;;;;;30.18;37.43;100527.03;5018303;28;20127;-72
2022/06/24 11:01:25;;;;;;;1.77;1.45;;;;;;;30.18;37.24;100529.75;5018283;28;20552;-71
2022/06/24 11:03:52;;;;;;;3.00;1.60;;;;;;;30.21;36.90;100536.72;5018228;28;20045;-72
2022/06/24 11:06:17;;;;;;;1.98;1.30;;;;;;;30.24;37.04;100533.69;5036160;28;20424;-71
2022/06/24 11:08:43;;;;;;;2.22;1.48;;;;;;;30.15;37.02;100540.88;5036055;28;21172;-72
2022/06/24 11:11:08;;;;;;;2.22;1.60;;;;;;;30.09;36.34;100538.81;5017690;28;20522;-73
2022/06/24 11:13:34;;;;;;;3.10;1.77;;;;;;;30.01;36.48;100530.59;5001640;28;20034;-75
2022/06/24 11:16:00;;;;;;;3.20;1.70;;;;;;;30.16;35.98;100521.78;5035439;28;20124;-75
2022/06/24 11:18:31;;;;;;;2.08;1.60;;;;;;;30.23;35.75;100521.16;5051021;28;20544;-74
2022/06/24 11:21:07;;;;;;;2.60;1.60;;;;;;;30.30;35.86;100512.25;5035597;28;20115;-74
2022/06/24 11:23:35;;;;;;;2.85;1.80;;;;;;;30.24;35.96;100512.00;5035824;28;20045;-77
2022/06/24 11:26:02;;;;;;;2.40;1.90;;;;;;;30.30;35.56;100505.97;5018300;28;20048;-78
2022/06/24 11:28:34;;;;;;;2.55;1.73;;;;;;;30.28;35.56;100508.84;5018605;28;20033;-78
2022/06/24 11:31:18;;;;;;;2.70;1.70;;;;;;;30.44;34.88;100510.81;5037297;28;20381;-77
2022/06/24 11:33:46;;;;;;;2.65;1.67;;;;;;;30.44;35.50;100513.50;5016040;28;20108;-71
2022/06/24 11:36:14;;;;;;;1.95;1.60;;;;;;;30.26;34.93;100508.16;4998112;28;20042;-77
2022/06/24 11:38:55;;;;;;;4.97;1.90;;;;;;;30.37;34.51;100512.47;4998623;28;20034;-79